^^
Grace C. Lehan Memorial Weather Station Historical Data
Daily Summary for April 13, 2021 Units:  Both    English   Metric
Daily Weekly Monthly Yearly
  High: Low: Average:
Temperature: 83.1 °F /  28.4 °C 57.3 °F /  14.1 °C 70.9 °F /  21.6 °C
Dew Point: 65.1 °F /  18.4 °C 51.9 °F /  11.1 °C 58.5 °F /  14.7 °C
Humidity: 95% 36.6% 68%
Wind Speed: 2mph /  3.2km/h - 0.3mph /  0.5km/h
Wind Gust: 10mph /  16.1km/h - -
Wind- - SW
Pressure: 29.89 in /  1012.1 hPa 29.83 in /  1010 hPa -
Precipitation: 0.00 in /  0 mm    
 
 
Tabular Data for April 13, 2021
Time Temperature Dew Point Pressure Wind Wind Speed Wind Gust Humidity Rainfall Rate (Hourly) solar
00:04 62.1 °F /  16.7 °C 58.5 °F /  14.7 °C 29.86in /  1011.1hPa Calm     88% 0.00in /  0mm 0 W/m2
00:09 61.9 °F /  16.6 °C 58.6 °F /  14.8 °C 29.86in /  1011.1hPa Calm     89% 0.00in /  0mm 0 W/m2
00:14 61.8 °F /  16.6 °C 58.5 °F /  14.7 °C 29.86in /  1011.1hPa Calm     89% 0.00in /  0mm 0 W/m2
00:19 61.6 °F /  16.4 °C 58.3 °F /  14.6 °C 29.86in /  1011.1hPa Calm     89% 0.00in /  0mm 0 W/m2
00:24 61.5 °F /  16.4 °C 58.2 °F /  14.6 °C 29.86in /  1011.1hPa Calm     89% 0.00in /  0mm 0 W/m2
00:29 61.4 °F /  16.3 °C 58.2 °F /  14.6 °C 29.86in /  1011.1hPa Calm     89.4% 0.00in /  0mm 0 W/m2
00:34 61.3 °F /  16.3 °C 58.3 °F /  14.6 °C 29.86in /  1011.1hPa Calm     90% 0.00in /  0mm 0 W/m2
00:39 61.2 °F /  16.2 °C 58.3 °F /  14.6 °C 29.86in /  1011.1hPa Calm     90% 0.00in /  0mm 0 W/m2
00:44 61.1 °F /  16.2 °C 58.3 °F /  14.6 °C 29.86in /  1011.1hPa Calm     90.4% 0.00in /  0mm 0 W/m2
00:49 61 °F /  16.1 °C 58.1 °F /  14.5 °C 29.86in /  1011.1hPa Calm     90% 0.00in /  0mm 0 W/m2
00:54 60.9 °F /  16.1 °C 58 °F /  14.4 °C 29.87in /  1011.4hPa Calm     90% 0.00in /  0mm 0 W/m2
00:59 60.8 °F /  16 °C 57.9 °F /  14.4 °C 29.87in /  1011.4hPa Calm     90% 0.00in /  0mm 0 W/m2
01:04 60.7 °F /  15.9 °C 57.8 °F /  14.3 °C 29.87in /  1011.4hPa Calm     90% 0.00in /  0mm 0 W/m2
01:09 60.7 °F /  15.9 °C 57.9 °F /  14.4 °C 29.86in /  1011.1hPa Calm     90.5% 0.00in /  0mm 0 W/m2
01:14 60.6 °F /  15.9 °C 57.9 °F /  14.4 °C 29.86in /  1011.1hPa Calm   1mph /  1.6km/h 91% 0.00in /  0mm 0 W/m2
01:19 60.5 °F /  15.8 °C 57.8 °F /  14.3 °C 29.86in /  1011.1hPa Calm   1mph /  1.6km/h 90.7% 0.00in /  0mm 0 W/m2
01:24 60.5 °F /  15.8 °C 57.9 °F /  14.4 °C 29.86in /  1011.1hPa Calm   1mph /  1.6km/h 91% 0.00in /  0mm 0 W/m2
01:29 60.4 °F /  15.8 °C 57.8 °F /  14.3 °C 29.86in /  1011.1hPa Calm   1mph /  1.6km/h 91% 0.00in /  0mm 0 W/m2
01:34 60.4 °F /  15.8 °C 57.8 °F /  14.3 °C 29.86in /  1011.1hPa Calm   1mph /  1.6km/h 91% 0.00in /  0mm 0 W/m2
01:39 60.4 °F /  15.8 °C 57.8 °F /  14.3 °C 29.86in /  1011.1hPa Calm     91% 0.00in /  0mm 0 W/m2
01:44 60.4 °F /  15.8 °C 57.8 °F /  14.3 °C 29.86in /  1011.1hPa Calm     91% 0.00in /  0mm 0 W/m2
01:49 60.3 °F /  15.7 °C 57.7 °F /  14.3 °C 29.86in /  1011.1hPa Calm     91% 0.00in /  0mm 0 W/m2
01:54 60.3 °F /  15.7 °C 57.7 °F /  14.3 °C 29.86in /  1011.1hPa Calm     91% 0.00in /  0mm 0 W/m2
01:59 60.3 °F /  15.7 °C 57.7 °F /  14.3 °C 29.86in /  1011.1hPa WSW 0.1mph /  0.2km/h 2mph /  3.2km/h 91% 0.00in /  0mm 0 W/m2
02:04 60.3 °F /  15.7 °C 57.7 °F /  14.3 °C 29.86in /  1011.1hPa WSW 0.2mph /  0.3km/h 4mph /  6.4km/h 91% 0.00in /  0mm 0 W/m2
02:09 60.3 °F /  15.7 °C 57.7 °F /  14.3 °C 29.86in /  1011.1hPa WSW 0.2mph /  0.3km/h 4mph /  6.4km/h 91% 0.00in /  0mm 0 W/m2
02:14 60.3 °F /  15.7 °C 57.6 °F /  14.2 °C 29.86in /  1011.1hPa WSW 0.4mph /  0.6km/h 4mph /  6.4km/h 91% 0.00in /  0mm 0 W/m2
02:19 60.2 °F /  15.7 °C 57.6 °F /  14.2 °C 29.86in /  1011.1hPa WSW 0.2mph /  0.3km/h 6mph /  9.7km/h 91% 0.00in /  0mm 0 W/m2
02:24 60.2 °F /  15.7 °C 57.8 °F /  14.3 °C 29.86in /  1011.1hPa Calm   6mph /  9.7km/h 91.7% 0.00in /  0mm 0 W/m2
02:29 60.2 °F /  15.7 °C 57.9 °F /  14.4 °C 29.86in /  1011.1hPa Calm   6mph /  9.7km/h 92% 0.00in /  0mm 0 W/m2
02:34 60.2 °F /  15.7 °C 57.9 °F /  14.4 °C 29.86in /  1011.1hPa Calm   6mph /  9.7km/h 92% 0.00in /  0mm 0 W/m2
02:39 60.1 °F /  15.6 °C 57.5 °F /  14.2 °C 29.86in /  1011.1hPa Calm     91.1% 0.00in /  0mm 0 W/m2
02:44 60 °F /  15.6 °C 57.4 °F /  14.1 °C 29.86in /  1011.1hPa Calm     91% 0.00in /  0mm 0 W/m2
02:49 59.9 °F /  15.5 °C 57.3 °F /  14.1 °C 29.86in /  1011.1hPa Calm     91% 0.00in /  0mm 0 W/m2
02:54 59.8 °F /  15.4 °C 57.2 °F /  14 °C 29.86in /  1011.1hPa Calm     91.2% 0.00in /  0mm 0 W/m2
02:59 59.8 °F /  15.4 °C 57.4 °F /  14.1 °C 29.86in /  1011.1hPa Calm     91.9% 0.00in /  0mm 0 W/m2
03:04 59.6 °F /  15.3 °C 57.1 °F /  13.9 °C 29.86in /  1011.1hPa Calm     91.3% 0.00in /  0mm 0 W/m2
03:09 59.5 °F /  15.3 °C 56.8 °F /  13.8 °C 29.86in /  1011.1hPa Calm     91% 0.00in /  0mm 0 W/m2
03:14 59.3 °F /  15.2 °C 56.7 °F /  13.7 °C 29.86in /  1011.1hPa Calm     91% 0.00in /  0mm 0 W/m2
03:19 59.2 °F /  15.1 °C 56.6 °F /  13.7 °C 29.86in /  1011.1hPa Calm     91% 0.00in /  0mm 0 W/m2
03:24 59.1 °F /  15.1 °C 56.7 °F /  13.7 °C 29.86in /  1011.1hPa Calm     92% 0.00in /  0mm 0 W/m2
03:29 58.9 °F /  14.9 °C 56.6 °F /  13.7 °C 29.86in /  1011.1hPa Calm     92% 0.00in /  0mm 0 W/m2
03:34 58.8 °F /  14.9 °C 56.5 °F /  13.6 °C 29.86in /  1011.1hPa Calm     92% 0.00in /  0mm 0 W/m2
03:39 58.7 °F /  14.8 °C 56.4 °F /  13.6 °C 29.86in /  1011.1hPa Calm     92% 0.00in /  0mm 0 W/m2
03:44 58.7 °F /  14.8 °C 56.4 °F /  13.6 °C 29.86in /  1011.1hPa Calm     92% 0.00in /  0mm 0 W/m2
03:49 58.6 °F /  14.8 °C 56.3 °F /  13.5 °C 29.86in /  1011.1hPa Calm     92% 0.00in /  0mm 0 W/m2
03:54 58.5 °F /  14.7 °C 56.2 °F /  13.4 °C 29.86in /  1011.1hPa Calm     92% 0.00in /  0mm 0 W/m2
03:59 58.4 °F /  14.7 °C 56.1 °F /  13.4 °C 29.86in /  1011.1hPa Calm     92% 0.00in /  0mm 0 W/m2
04:09 58.2 °F /  14.6 °C 55.9 °F /  13.3 °C 29.86in /  1011.1hPa Calm     92.1% 0.00in /  0mm 0 W/m2
04:14 58.1 °F /  14.5 °C 56.1 °F /  13.4 °C 29.86in /  1011.1hPa Calm     93% 0.00in /  0mm 0 W/m2
04:19 58 °F /  14.4 °C 56 °F /  13.3 °C 29.86in /  1011.1hPa Calm     93% 0.00in /  0mm 0 W/m2
04:24 58 °F /  14.4 °C 56 °F /  13.3 °C 29.86in /  1011.1hPa Calm     93% 0.00in /  0mm 0 W/m2
04:29 58 °F /  14.4 °C 55.9 °F /  13.3 °C 29.86in /  1011.1hPa Calm     93% 0.00in /  0mm 0 W/m2
04:34 57.9 °F /  14.4 °C 55.9 °F /  13.3 °C 29.86in /  1011.1hPa Calm     93% 0.00in /  0mm 0 W/m2
04:39 57.9 °F /  14.4 °C 55.9 °F /  13.3 °C 29.86in /  1011.1hPa Calm     93% 0.00in /  0mm 0 W/m2
04:44 57.8 °F /  14.3 °C 55.8 °F /  13.2 °C 29.87in /  1011.4hPa Calm     93% 0.00in /  0mm 0 W/m2
04:49 57.7 °F /  14.3 °C 55.7 °F /  13.2 °C 29.87in /  1011.4hPa Calm     93% 0.00in /  0mm 0 W/m2
04:54 57.7 °F /  14.3 °C 55.7 °F /  13.2 °C 29.87in /  1011.4hPa Calm     93% 0.00in /  0mm 0 W/m2
04:59 57.6 °F /  14.2 °C 55.6 °F /  13.1 °C 29.87in /  1011.4hPa Calm     93% 0.00in /  0mm 0 W/m2
05:04 57.6 °F /  14.2 °C 55.6 °F /  13.1 °C 29.87in /  1011.4hPa Calm     93% 0.00in /  0mm 0 W/m2
05:09 57.6 °F /  14.2 °C 55.6 °F /  13.1 °C 29.87in /  1011.4hPa Calm     93.2% 0.00in /  0mm 0 W/m2
05:14 57.6 °F /  14.2 °C 55.7 °F /  13.2 °C 29.87in /  1011.4hPa Calm     93.3% 0.00in /  0mm 0 W/m2
05:19 57.5 °F /  14.2 °C 55.8 °F /  13.2 °C 29.87in /  1011.4hPa Calm     94% 0.00in /  0mm 5 W/m2
05:24 57.5 °F /  14.2 °C 55.8 °F /  13.2 °C 29.87in /  1011.4hPa Calm     94% 0.00in /  0mm 7 W/m2
05:29 57.4 °F /  14.1 °C 55.7 °F /  13.2 °C 29.87in /  1011.4hPa Calm     94% 0.00in /  0mm 9 W/m2
05:34 57.4 °F /  14.1 °C 55.7 °F /  13.2 °C 29.87in /  1011.4hPa Calm     94% 0.00in /  0mm 11 W/m2
05:39 57.4 °F /  14.1 °C 55.7 °F /  13.2 °C 29.87in /  1011.4hPa Calm     94% 0.00in /  0mm 11 W/m2
05:44 57.3 °F /  14.1 °C 55.6 °F /  13.1 °C 29.87in /  1011.4hPa Calm     94% 0.00in /  0mm 14 W/m2
05:49 57.3 °F /  14.1 °C 55.6 °F /  13.1 °C 29.87in /  1011.4hPa Calm     94% 0.00in /  0mm 18 W/m2
05:54 57.3 °F /  14.1 °C 55.6 °F /  13.1 °C 29.87in /  1011.4hPa Calm     94% 0.00in /  0mm 21 W/m2
05:59 57.4 °F /  14.1 °C 55.7 °F /  13.2 °C 29.87in /  1011.4hPa Calm     94% 0.00in /  0mm 19 W/m2
06:04 57.5 °F /  14.2 °C 55.8 °F /  13.2 °C 29.88in /  1011.7hPa Calm     94% 0.00in /  0mm 19 W/m2
06:09 57.6 °F /  14.2 °C 55.9 °F /  13.3 °C 29.88in /  1011.7hPa Calm     94% 0.00in /  0mm 19 W/m2
06:14 57.7 °F /  14.3 °C 56 °F /  13.3 °C 29.88in /  1011.7hPa Calm     94% 0.00in /  0mm 19 W/m2
06:19 57.7 °F /  14.3 °C 56 °F /  13.3 °C 29.88in /  1011.7hPa Calm     94% 0.00in /  0mm 18 W/m2
06:24 57.8 °F /  14.3 °C 56.1 °F /  13.4 °C 29.88in /  1011.7hPa Calm     94% 0.00in /  0mm 18 W/m2
06:29 57.8 °F /  14.3 °C 56.1 °F /  13.4 °C 29.88in /  1011.7hPa Calm     94% 0.00in /  0mm 25 W/m2
06:34 57.8 °F /  14.3 °C 56.1 °F /  13.4 °C 29.88in /  1011.7hPa Calm     94% 0.00in /  0mm 39 W/m2
06:39 57.9 °F /  14.4 °C 56.2 °F /  13.4 °C 29.88in /  1011.7hPa Calm     94% 0.00in /  0mm 62 W/m2
06:44 58.2 °F /  14.6 °C 56.4 °F /  13.6 °C 29.89in /  1012.1hPa Calm     94% 0.00in /  0mm 84 W/m2
06:49 58.6 °F /  14.8 °C 56.9 °F /  13.8 °C 29.88in /  1011.7hPa Calm     94.1% 0.00in /  0mm 86 W/m2
06:54 59.2 °F /  15.1 °C 57.8 °F /  14.3 °C 29.88in /  1011.7hPa Calm     95% 0.00in /  0mm 81 W/m2
06:59 59.8 °F /  15.4 °C 58.3 °F /  14.6 °C 29.89in /  1012.1hPa Calm     94.7% 0.00in /  0mm 84 W/m2
07:04 60.5 °F /  15.8 °C 58.8 °F /  14.9 °C 29.89in /  1012.1hPa Calm     94% 0.00in /  0mm 84 W/m2
07:09 61.2 °F /  16.2 °C 59.2 °F /  15.1 °C 29.88in /  1011.7hPa Calm     93.2% 0.00in /  0mm 83 W/m2
07:14 61.9 °F /  16.6 °C 59.4 °F /  15.2 °C 29.89in /  1012.1hPa Calm     91.3% 0.00in /  0mm 79 W/m2
07:19 62.6 °F /  17 °C 59.5 °F /  15.3 °C 29.89in /  1012.1hPa Calm     89.6% 0.00in /  0mm 62 W/m2
07:24 63.2 °F /  17.3 °C 59.6 °F /  15.3 °C 29.88in /  1011.7hPa Calm     88% 0.00in /  0mm 279 W/m2
07:29 64 °F /  17.8 °C 60.1 °F /  15.6 °C 29.89in /  1012.1hPa Calm     87.2% 0.00in /  0mm 323 W/m2
07:34 64.9 °F /  18.3 °C 60.7 °F /  15.9 °C 29.89in /  1012.1hPa Calm     86.4% 0.00in /  0mm 343 W/m2
07:39 65.9 °F /  18.8 °C 61.1 °F /  16.2 °C 29.89in /  1012.1hPa Calm     84.4% 0.00in /  0mm 364 W/m2
07:44 66.8 °F /  19.3 °C 61.3 °F /  16.3 °C 29.88in /  1011.7hPa Calm     82.5% 0.00in /  0mm 385 W/m2
07:49 67.5 °F /  19.7 °C 61.3 °F /  16.3 °C 29.88in /  1011.7hPa Calm     80.3% 0.00in /  0mm 399 W/m2
07:54 68.2 °F /  20.1 °C 61.6 °F /  16.4 °C 29.88in /  1011.7hPa Calm     79.3% 0.00in /  0mm 420 W/m2
07:59 68.9 °F /  20.5 °C 62.2 °F /  16.8 °C 29.88in /  1011.7hPa Calm     79% 0.00in /  0mm 429 W/m2
08:00 69.3 °F /  20.7 °C 62.5 °F /  16.9 °C 29.88in /  1011.7hPa Calm     79% 0.00in /  0mm 417 W/m2
08:09 70.2 °F /  21.2 °C 62.5 °F /  16.9 °C 29.88in /  1011.7hPa Calm     76.5% 0.00in /  0mm 461 W/m2
08:14 70.8 °F /  21.6 °C 62.9 °F /  17.2 °C 29.88in /  1011.7hPa Calm     76.2% 0.00in /  0mm 487 W/m2
08:19 71.5 °F /  21.9 °C 63.3 °F /  17.4 °C 29.88in /  1011.7hPa Calm     75.4% 0.00in /  0mm 501 W/m2
08:24 72.1 °F /  22.3 °C 63.5 °F /  17.5 °C 29.88in /  1011.7hPa Calm     74.2% 0.00in /  0mm 517 W/m2
08:29 72.7 °F /  22.6 °C 63.3 °F /  17.4 °C 29.89in /  1012.1hPa Calm     72.4% 0.00in /  0mm 534 W/m2
08:34 73 °F /  22.8 °C 63.1 °F /  17.3 °C 29.89in /  1012.1hPa Calm     71.2% 0.00in /  0mm 552 W/m2
08:39 73.2 °F /  22.9 °C 63.2 °F /  17.3 °C 29.88in /  1011.7hPa Calm     70.8% 0.00in /  0mm 566 W/m2
08:44 73.6 °F /  23.1 °C 63.9 °F /  17.7 °C 29.88in /  1011.7hPa Calm     71.7% 0.00in /  0mm 585 W/m2
08:49 74 °F /  23.3 °C 64 °F /  17.8 °C 29.88in /  1011.7hPa Calm     70.9% 0.00in /  0mm 599 W/m2
08:54 74.4 °F /  23.6 °C 64.3 °F /  17.9 °C 29.88in /  1011.7hPa Calm     70.7% 0.00in /  0mm 610 W/m2
08:59 74.8 °F /  23.8 °C 64.3 °F /  17.9 °C 29.88in /  1011.7hPa Calm     69.8% 0.00in /  0mm 628 W/m2
09:04 75.2 °F /  24 °C 64.6 °F /  18.1 °C 29.88in /  1011.7hPa Calm     69.7% 0.00in /  0mm 636 W/m2
09:09 75.8 °F /  24.3 °C 65.1 °F /  18.4 °C 29.88in /  1011.7hPa WSW 0.1mph /  0.2km/h 3mph /  4.8km/h 69.4% 0.00in /  0mm 656 W/m2
09:14 76.3 °F /  24.6 °C 65 °F /  18.3 °C 29.88in /  1011.7hPa WSW 0.2mph /  0.3km/h 3mph /  4.8km/h 68% 0.00in /  0mm 671 W/m2
09:19 76.7 °F /  24.8 °C 64.7 °F /  18.2 °C 29.88in /  1011.7hPa WSW 0.1mph /  0.2km/h 3mph /  4.8km/h 66.4% 0.00in /  0mm 686 W/m2
09:24 77 °F /  25 °C 64.6 °F /  18.1 °C 29.88in /  1011.7hPa Calm   3mph /  4.8km/h 65.5% 0.00in /  0mm 700 W/m2
09:29 77.2 °F /  25.1 °C 64.1 °F /  17.8 °C 29.88in /  1011.7hPa Calm   3mph /  4.8km/h 64.1% 0.00in /  0mm 715 W/m2
09:34 77.3 °F /  25.2 °C 64.8 °F /  18.2 °C 29.88in /  1011.7hPa Calm   3mph /  4.8km/h 65.5% 0.00in /  0mm 729 W/m2
09:39 77.7 °F /  25.4 °C 64.6 °F /  18.1 °C 29.88in /  1011.7hPa Calm   1mph /  1.6km/h 64.1% 0.00in /  0mm 745 W/m2
09:44 78.1 °F /  25.6 °C 63.9 °F /  17.7 °C 29.88in /  1011.7hPa WSW 0.2mph /  0.3km/h 3mph /  4.8km/h 61.9% 0.00in /  0mm 759 W/m2
09:49 78.2 °F /  25.7 °C 62.9 °F /  17.2 °C 29.88in /  1011.7hPa WSW 0.2mph /  0.3km/h 3mph /  4.8km/h 59.4% 0.00in /  0mm 772 W/m2
09:54 78.3 °F /  25.7 °C 63.4 °F /  17.4 °C 29.88in /  1011.7hPa WSW 0.1mph /  0.2km/h 3mph /  4.8km/h 60.3% 0.00in /  0mm 784 W/m2
09:59 78.8 °F /  26 °C 63.9 °F /  17.7 °C 29.88in /  1011.7hPa WSW 0.1mph /  0.2km/h 3mph /  4.8km/h 60.1% 0.00in /  0mm 795 W/m2
10:04 79.4 °F /  26.3 °C 63.8 °F /  17.7 °C 29.88in /  1011.7hPa WSW 0.5mph /  0.8km/h 4mph /  6.4km/h 58.8% 0.00in /  0mm 805 W/m2
10:09 79.9 °F /  26.6 °C 62.8 °F /  17.1 °C 29.88in /  1011.7hPa WSW 0.5mph /  0.8km/h 5mph /  8km/h 56% 0.00in /  0mm 817 W/m2
10:14 80.3 °F /  26.8 °C 63 °F /  17.2 °C 29.88in /  1011.7hPa Calm   5mph /  8km/h 55.5% 0.00in /  0mm 830 W/m2
10:19 80.5 °F /  26.9 °C 63.3 °F /  17.4 °C 29.88in /  1011.7hPa WSW 1.1mph /  1.8km/h 9mph /  14.5km/h 55.9% 0.00in /  0mm 837 W/m2
10:24 80.6 °F /  27 °C 62.1 °F /  16.7 °C 29.88in /  1011.7hPa WSW 0.3mph /  0.5km/h 9mph /  14.5km/h 53.4% 0.00in /  0mm 846 W/m2
10:29 80.6 °F /  27 °C 62.3 °F /  16.8 °C 29.88in /  1011.7hPa WSW 0.8mph /  1.3km/h 9mph /  14.5km/h 53.7% 0.00in /  0mm 854 W/m2
10:34 80.9 °F /  27.2 °C 61 °F /  16.1 °C 29.88in /  1011.7hPa WSW 0.1mph /  0.2km/h 9mph /  14.5km/h 50.9% 0.00in /  0mm 865 W/m2
10:39 80.9 °F /  27.2 °C 60.6 °F /  15.9 °C 29.88in /  1011.7hPa WSW 0.1mph /  0.2km/h 3mph /  4.8km/h 50.1% 0.00in /  0mm 868 W/m2
10:44 80.8 °F /  27.1 °C 60.4 °F /  15.8 °C 29.88in /  1011.7hPa WSW 0.4mph /  0.6km/h 3mph /  4.8km/h 49.9% 0.00in /  0mm 872 W/m2
10:49 80.8 °F /  27.1 °C 61.1 °F /  16.2 °C 29.88in /  1011.7hPa WSW 0.2mph /  0.3km/h 3mph /  4.8km/h 51% 0.00in /  0mm 882 W/m2
10:54 80.9 °F /  27.2 °C 60.3 °F /  15.7 °C 29.88in /  1011.7hPa WSW 0.5mph /  0.8km/h 6mph /  9.7km/h 49.7% 0.00in /  0mm 893 W/m2
10:59 81 °F /  27.2 °C 60.8 °F /  16 °C 29.88in /  1011.7hPa WSW 1.2mph /  1.9km/h 6mph /  9.7km/h 50.3% 0.00in /  0mm 896 W/m2
11:04 81.1 °F /  27.3 °C 61.3 °F /  16.3 °C 29.88in /  1011.7hPa WSW 0.4mph /  0.6km/h 6mph /  9.7km/h 51.1% 0.00in /  0mm 904 W/m2
11:09 81.3 °F /  27.4 °C 61.2 °F /  16.2 °C 29.88in /  1011.7hPa WSW 1mph /  1.6km/h 6mph /  9.7km/h 50.6% 0.00in /  0mm 914 W/m2
11:14 81.7 °F /  27.6 °C 61.6 °F /  16.4 °C 29.87in /  1011.4hPa WSW 1.7mph /  2.7km/h 7mph /  11.3km/h 50.6% 0.00in /  0mm 918 W/m2
11:19 82.1 °F /  27.8 °C 61.8 °F /  16.6 °C 29.87in /  1011.4hPa WSW 0.8mph /  1.3km/h 7mph /  11.3km/h 50.2% 0.00in /  0mm 926 W/m2
11:24 82.5 °F /  28.1 °C 61.6 °F /  16.4 °C 29.87in /  1011.4hPa WSW 1.1mph /  1.8km/h 7mph /  11.3km/h 49.4% 0.00in /  0mm 935 W/m2
11:29 82.7 °F /  28.2 °C 60.3 °F /  15.7 °C 29.87in /  1011.4hPa Calm   7mph /  11.3km/h 46.8% 0.00in /  0mm 939 W/m2
11:34 82.6 °F /  28.1 °C 60.3 °F /  15.7 °C 29.87in /  1011.4hPa WSW 0.1mph /  0.2km/h 7mph /  11.3km/h 46.9% 0.00in /  0mm 949 W/m2
11:39 82.5 °F /  28.1 °C 60.1 °F /  15.6 °C 29.87in /  1011.4hPa WSW 0.5mph /  0.8km/h 4mph /  6.4km/h 46.8% 0.00in /  0mm 954 W/m2
11:44 82.5 °F /  28.1 °C 59.9 °F /  15.5 °C 29.87in /  1011.4hPa WSW 0.1mph /  0.2km/h 4mph /  6.4km/h 46.4% 0.00in /  0mm 954 W/m2
11:49 82.4 °F /  28 °C 59.4 °F /  15.2 °C 29.87in /  1011.4hPa SW 0.9mph /  1.4km/h 6mph /  9.7km/h 45.6% 0.00in /  0mm 965 W/m2
11:54 82.2 °F /  27.9 °C 60 °F /  15.6 °C 29.87in /  1011.4hPa SSW 0.4mph /  0.6km/h 6mph /  9.7km/h 47.1% 0.00in /  0mm 969 W/m2
11:59 82.4 °F /  28 °C 61 °F /  16.1 °C 29.87in /  1011.4hPa SW 1.6mph /  2.6km/h 9mph /  14.5km/h 48.5% 0.00in /  0mm 963 W/m2
12:00 82.5 °F /  28.1 °C 61.4 °F /  16.3 °C 29.87in /  1011.4hPa SW 2mph /  3.2km/h 9mph /  14.5km/h 49% 0.00in /  0mm 958 W/m2
12:09 82.9 °F /  28.3 °C 60.2 °F /  15.7 °C 29.87in /  1011.4hPa WSW 1.6mph /  2.6km/h 5mph /  8km/h 46.4% 0.00in /  0mm 979 W/m2
12:14 83.1 °F /  28.4 °C 59.5 °F /  15.3 °C 29.87in /  1011.4hPa WSW 0.3mph /  0.5km/h 5mph /  8km/h 45% 0.00in /  0mm 983 W/m2
12:19 83.1 °F /  28.4 °C 61.1 °F /  16.2 °C 29.87in /  1011.4hPa SSW 0.2mph /  0.3km/h 5mph /  8km/h 47.5% 0.00in /  0mm 990 W/m2
12:24 83.1 °F /  28.4 °C 58.8 °F /  14.9 °C 29.87in /  1011.4hPa SSW 0.5mph /  0.8km/h 6mph /  9.7km/h 43.8% 0.00in /  0mm 1018 W/m2
12:29 82.7 °F /  28.2 °C 58.9 °F /  14.9 °C 29.87in /  1011.4hPa SW 1mph /  1.6km/h 8mph /  12.9km/h 44.5% 0.00in /  0mm 1051 W/m2
12:34 82.4 °F /  28 °C 57.8 °F /  14.3 °C 29.87in /  1011.4hPa WSW 1.5mph /  2.4km/h 10mph /  16.1km/h 43.3% 0.00in /  0mm 287 W/m2
12:39 81.8 °F /  27.7 °C 58.7 °F /  14.8 °C 29.87in /  1011.4hPa SW 0.3mph /  0.5km/h 10mph /  16.1km/h 45.4% 0.00in /  0mm 1027 W/m2
12:44 81.5 °F /  27.5 °C 59.5 °F /  15.3 °C 29.87in /  1011.4hPa SW 0.1mph /  0.2km/h 10mph /  16.1km/h 47.3% 0.00in /  0mm 1027 W/m2
12:49 81.5 °F /  27.5 °C 57.4 °F /  14.1 °C 29.86in /  1011.1hPa SW 0.5mph /  0.8km/h 10mph /  16.1km/h 43.8% 0.00in /  0mm 1027 W/m2
12:54 81.7 °F /  27.6 °C 57.1 °F /  13.9 °C 29.86in /  1011.1hPa SSW 0.3mph /  0.5km/h 10mph /  16.1km/h 43.2% 0.00in /  0mm 1032 W/m2
12:59 82 °F /  27.8 °C 57.4 °F /  14.1 °C 29.86in /  1011.1hPa WSW 0.5mph /  0.8km/h 10mph /  16.1km/h 43.2% 0.00in /  0mm 1049 W/m2
13:04 82.3 °F /  27.9 °C 59.2 °F /  15.1 °C 29.86in /  1011.1hPa WSW 1.4mph /  2.3km/h 10mph /  16.1km/h 45.5% 0.00in /  0mm 1088 W/m2
13:09 82.8 °F /  28.2 °C 57.4 °F /  14.1 °C 29.86in /  1011.1hPa SSW 0.4mph /  0.6km/h 9mph /  14.5km/h 42.1% 0.00in /  0mm 1111 W/m2
13:14 82.7 °F /  28.2 °C 58.4 °F /  14.7 °C 29.86in /  1011.1hPa SW 1.5mph /  2.4km/h 9mph /  14.5km/h 43.7% 0.00in /  0mm 269 W/m2
13:19 82.6 °F /  28.1 °C 59.4 °F /  15.2 °C 29.86in /  1011.1hPa WSW 0.7mph /  1.1km/h 9mph /  14.5km/h 45.5% 0.00in /  0mm 1137 W/m2
13:24 82.7 °F /  28.2 °C 60 °F /  15.6 °C 29.86in /  1011.1hPa WSW 0.6mph /  1km/h 9mph /  14.5km/h 46.2% 0.00in /  0mm 1144 W/m2
13:29 82.8 °F /  28.2 °C 59.3 °F /  15.2 °C 29.85in /  1010.7hPa WSW 0.7mph /  1.1km/h 9mph /  14.5km/h 45.1% 0.00in /  0mm 1095 W/m2
13:34 82.7 °F /  28.2 °C 59.3 °F /  15.2 °C 29.86in /  1011.1hPa WSW 1mph /  1.6km/h 9mph /  14.5km/h 45.2% 0.00in /  0mm 1060 W/m2
13:39 82.8 °F /  28.2 °C 59.4 °F /  15.2 °C 29.85in /  1010.7hPa West 1.3mph /  2.1km/h 5mph /  8km/h 45.1% 0.00in /  0mm 1067 W/m2
13:44 83 °F /  28.3 °C 59.5 °F /  15.3 °C 29.85in /  1010.7hPa West 1.3mph /  2.1km/h 5mph /  8km/h 45% 0.00in /  0mm 1056 W/m2
13:49 83 °F /  28.3 °C 59 °F /  15 °C 29.85in /  1010.7hPa West 0.4mph /  0.6km/h 5mph /  8km/h 44.2% 0.00in /  0mm 165 W/m2
13:54 82.5 °F /  28.1 °C 58.6 °F /  14.8 °C 29.85in /  1010.7hPa West 0.6mph /  1km/h 5mph /  8km/h 44.2% 0.00in /  0mm 867 W/m2
13:59 82.1 °F /  27.8 °C 59 °F /  15 °C 29.85in /  1010.7hPa WSW 0.3mph /  0.5km/h 5mph /  8km/h 45.6% 0.00in /  0mm 1092 W/m2
14:04 82.1 °F /  27.8 °C 59.9 °F /  15.5 °C 29.85in /  1010.7hPa WSW 1.9mph /  3.1km/h 7mph /  11.3km/h 47.1% 0.00in /  0mm 1016 W/m2
14:09 82.4 °F /  28 °C 59.9 °F /  15.5 °C 29.85in /  1010.7hPa West 1.1mph /  1.8km/h 7mph /  11.3km/h 46.5% 0.00in /  0mm 1009 W/m2
14:14 82.9 °F /  28.3 °C 59.3 °F /  15.2 °C 29.85in /  1010.7hPa WSW 1mph /  1.6km/h 7mph /  11.3km/h 45% 0.00in /  0mm 1004 W/m2
14:19 83 °F /  28.3 °C 58.7 °F /  14.8 °C 29.85in /  1010.7hPa West 0.7mph /  1.1km/h 7mph /  11.3km/h 43.7% 0.00in /  0mm 775 W/m2
14:24 82.8 °F /  28.2 °C 57.9 °F /  14.4 °C 29.85in /  1010.7hPa WSW 0.5mph /  0.8km/h 7mph /  11.3km/h 42.9% 0.00in /  0mm 775 W/m2
14:29 82.4 °F /  28 °C 57.8 °F /  14.3 °C 29.85in /  1010.7hPa WSW 0.8mph /  1.3km/h 7mph /  11.3km/h 43.3% 0.00in /  0mm 960 W/m2
14:34 82.2 °F /  27.9 °C 57.8 °F /  14.3 °C 29.85in /  1010.7hPa SW 0.5mph /  0.8km/h 7mph /  11.3km/h 43.5% 0.00in /  0mm 954 W/m2
14:39 82.4 °F /  28 °C 58.2 °F /  14.6 °C 29.85in /  1010.7hPa SW 1.7mph /  2.7km/h 6mph /  9.7km/h 43.8% 0.00in /  0mm 1042 W/m2
14:44 82.6 °F /  28.1 °C 56.6 °F /  13.7 °C 29.85in /  1010.7hPa South 0.3mph /  0.5km/h 6mph /  9.7km/h 41.1% 0.00in /  0mm 954 W/m2
14:49 82.7 °F /  28.2 °C 58.5 °F /  14.7 °C 29.85in /  1010.7hPa SW 2mph /  3.2km/h 6mph /  9.7km/h 43.8% 0.00in /  0mm 1051 W/m2
14:54 83 °F /  28.3 °C 57.6 °F /  14.2 °C 29.85in /  1010.7hPa SW 0.9mph /  1.4km/h 6mph /  9.7km/h 42% 0.00in /  0mm 981 W/m2
14:59 83.1 °F /  28.4 °C 58 °F /  14.4 °C 29.85in /  1010.7hPa SW 1.2mph /  1.9km/h 6mph /  9.7km/h 42.6% 0.00in /  0mm 981 W/m2
15:04 83 °F /  28.3 °C 56.4 °F /  13.6 °C 29.85in /  1010.7hPa SW 0.3mph /  0.5km/h 6mph /  9.7km/h 40.3% 0.00in /  0mm 439 W/m2
15:06 82.7 °F /  28.2 °C 55.2 °F /  12.9 °C 29.85in /  1010.7hPa SW 0.3mph /  0.5km/h 4mph /  6.4km/h 39% 0.00in /  0mm 439 W/m2
15:30 82.1 °F /  27.8 °C 54 °F /  12.2 °C 29.85in /  1010.7hPa SW 1mph /  1.6km/h 6mph /  9.7km/h 38% 0.00in /  0mm 615 W/m2
16:09 81.7 °F /  27.6 °C 52.6 °F /  11.4 °C 29.85in /  1010.7hPa SSW 0.2mph /  0.3km/h 6mph /  9.7km/h 36.6% 0.00in /  0mm 874 W/m2
16:14 81.6 °F /  27.6 °C 53.3 °F /  11.8 °C 29.85in /  1010.7hPa SSW 0.7mph /  1.1km/h 4mph /  6.4km/h 37.7% 0.00in /  0mm 626 W/m2
16:19 81.4 °F /  27.4 °C 52.9 °F /  11.6 °C 29.85in /  1010.7hPa SSW 0.3mph /  0.5km/h 4mph /  6.4km/h 37.4% 0.00in /  0mm 179 W/m2
16:24 81.1 °F /  27.3 °C 53.3 °F /  11.8 °C 29.85in /  1010.7hPa SSW 0.2mph /  0.3km/h 4mph /  6.4km/h 38.3% 0.00in /  0mm 137 W/m2
16:29 80.8 °F /  27.1 °C 53.6 °F /  12 °C 29.85in /  1010.7hPa SSW 0.1mph /  0.2km/h 4mph /  6.4km/h 39% 0.00in /  0mm 142 W/m2
16:34 80.6 °F /  27 °C 52.8 °F /  11.6 °C 29.85in /  1010.7hPa SSW 0.7mph /  1.1km/h 4mph /  6.4km/h 38.3% 0.00in /  0mm 130 W/m2
16:39 80.4 °F /  26.9 °C 52.7 °F /  11.5 °C 29.85in /  1010.7hPa South 1.8mph /  2.9km/h 5mph /  8km/h 38.3% 0.00in /  0mm 69 W/m2
16:44 80.3 °F /  26.8 °C 52.6 °F /  11.4 °C 29.85in /  1010.7hPa SW 1.2mph /  1.9km/h 5mph /  8km/h 38.3% 0.00in /  0mm 51 W/m2
16:49 80.2 °F /  26.8 °C 51.9 °F /  11.1 °C 29.84in /  1010.4hPa SSE 1mph /  1.6km/h 5mph /  8km/h 37.4% 0.00in /  0mm 47 W/m2
16:54 80 °F /  26.7 °C 52.7 °F /  11.5 °C 29.84in /  1010.4hPa South 0.8mph /  1.3km/h 5mph /  8km/h 38.8% 0.00in /  0mm 46 W/m2
16:59 80 °F /  26.7 °C 53.4 °F /  11.9 °C 29.84in /  1010.4hPa Calm   5mph /  8km/h 39.8% 0.00in /  0mm 44 W/m2
17:04 80.1 °F /  26.7 °C 53.7 °F /  12.1 °C 29.84in /  1010.4hPa SSW 1.1mph /  1.8km/h 5mph /  8km/h 40.1% 0.00in /  0mm 44 W/m2
17:09 80.1 °F /  26.7 °C 53 °F /  11.7 °C 29.84in /  1010.4hPa South 0.6mph /  1km/h 5mph /  8km/h 39.2% 0.00in /  0mm 44 W/m2
17:14 80 °F /  26.7 °C 53.3 °F /  11.8 °C 29.84in /  1010.4hPa South 0.6mph /  1km/h 5mph /  8km/h 39.6% 0.00in /  0mm 44 W/m2
17:19 79.7 °F /  26.5 °C 54 °F /  12.2 °C 29.83in /  1010hPa South 0.9mph /  1.4km/h 5mph /  8km/h 41.1% 0.00in /  0mm 53 W/m2
17:24 79.5 °F /  26.4 °C 54.4 °F /  12.4 °C 29.83in /  1010hPa SSW 0.7mph /  1.1km/h 6mph /  9.7km/h 42% 0.00in /  0mm 53 W/m2
17:29 79.4 °F /  26.3 °C 53.8 °F /  12.1 °C 29.83in /  1010hPa SW 1mph /  1.6km/h 6mph /  9.7km/h 41.2% 0.00in /  0mm 42 W/m2
17:34 79.4 °F /  26.3 °C 53.2 °F /  11.8 °C 29.83in /  1010hPa WSW 0.6mph /  1km/h 6mph /  9.7km/h 40.3% 0.00in /  0mm 40 W/m2
17:39 79.3 °F /  26.3 °C 53.4 °F /  11.9 °C 29.83in /  1010hPa WSW 0.5mph /  0.8km/h 4mph /  6.4km/h 40.7% 0.00in /  0mm 44 W/m2
17:44 79.3 °F /  26.3 °C 52.7 °F /  11.5 °C 29.84in /  1010.4hPa WSW 0.6mph /  1km/h 6mph /  9.7km/h 39.7% 0.00in /  0mm 40 W/m2
17:49 79.2 °F /  26.2 °C 53.2 °F /  11.8 °C 29.84in /  1010.4hPa WSW 0.7mph /  1.1km/h 6mph /  9.7km/h 40.5% 0.00in /  0mm 40 W/m2
17:54 79.1 °F /  26.2 °C 53.1 °F /  11.7 °C 29.84in /  1010.4hPa WSW 2mph /  3.2km/h 7mph /  11.3km/h 40.6% 0.00in /  0mm 37 W/m2
17:59 79 °F /  26.1 °C 54 °F /  12.2 °C 29.84in /  1010.4hPa WSW 1.3mph /  2.1km/h 7mph /  11.3km/h 42% 0.00in /  0mm 37 W/m2
18:04 78.9 °F /  26.1 °C 54.4 °F /  12.4 °C 29.84in /  1010.4hPa WSW 0.5mph /  0.8km/h 7mph /  11.3km/h 42.7% 0.00in /  0mm 35 W/m2
18:09 78.9 °F /  26.1 °C 54.6 °F /  12.6 °C 29.84in /  1010.4hPa WSW 0.4mph /  0.6km/h 4mph /  6.4km/h 43.2% 0.00in /  0mm 35 W/m2
18:14 78.7 °F /  25.9 °C 55.2 °F /  12.9 °C 29.84in /  1010.4hPa SSW 1mph /  1.6km/h 4mph /  6.4km/h 44.4% 0.00in /  0mm 33 W/m2
18:19 78.5 °F /  25.8 °C 53.9 °F /  12.2 °C 29.83in /  1010hPa South 0.8mph /  1.3km/h 4mph /  6.4km/h 42.6% 0.00in /  0mm 33 W/m2
18:24 78.3 °F /  25.7 °C 53.6 °F /  12 °C 29.84in /  1010.4hPa SW 1.5mph /  2.4km/h 6mph /  9.7km/h 42.5% 0.00in /  0mm 32 W/m2
18:29 78 °F /  25.6 °C 52.9 °F /  11.6 °C 29.84in /  1010.4hPa SSW 0.9mph /  1.4km/h 6mph /  9.7km/h 41.7% 0.00in /  0mm 32 W/m2
18:34 77.8 °F /  25.4 °C 53.7 °F /  12.1 °C 29.83in /  1010hPa SSW 0.3mph /  0.5km/h 6mph /  9.7km/h 43.3% 0.00in /  0mm 32 W/m2
18:39 77.6 °F /  25.3 °C 55 °F /  12.8 °C 29.84in /  1010.4hPa SSW 0.3mph /  0.5km/h 3mph /  4.8km/h 45.6% 0.00in /  0mm 30 W/m2
18:44 77.5 °F /  25.3 °C 56.2 °F /  13.4 °C 29.83in /  1010hPa SSW 0.1mph /  0.2km/h 3mph /  4.8km/h 47.9% 0.00in /  0mm 30 W/m2
18:49 77.4 °F /  25.2 °C 56.5 °F /  13.6 °C 29.83in /  1010hPa SSW 0.6mph /  1km/h 4mph /  6.4km/h 48.7% 0.00in /  0mm 28 W/m2
18:54 77.2 °F /  25.1 °C 56.1 °F /  13.4 °C 29.83in /  1010hPa SSW 0.9mph /  1.4km/h 4mph /  6.4km/h 48.1% 0.00in /  0mm 28 W/m2
18:59 77 °F /  25 °C 56.6 °F /  13.7 °C 29.83in /  1010hPa SW 0.5mph /  0.8km/h 4mph /  6.4km/h 49.5% 0.00in /  0mm 28 W/m2
19:04 76.7 °F /  24.8 °C 56.9 °F /  13.8 °C 29.83in /  1010hPa SW 0.4mph /  0.6km/h 5mph /  8km/h 50.4% 0.00in /  0mm 26 W/m2
19:09 76.5 °F /  24.7 °C 57.9 °F /  14.4 °C 29.83in /  1010hPa WSW 0.2mph /  0.3km/h 5mph /  8km/h 52.7% 0.00in /  0mm 26 W/m2
19:14 76.3 °F /  24.6 °C 58.7 °F /  14.8 °C 29.83in /  1010hPa WSW 0.8mph /  1.3km/h 5mph /  8km/h 54.6% 0.00in /  0mm 25 W/m2
19:19 76 °F /  24.4 °C 59.1 °F /  15.1 °C 29.83in /  1010hPa SW 0.2mph /  0.3km/h 5mph /  8km/h 55.9% 0.00in /  0mm 25 W/m2
19:24 75.7 °F /  24.3 °C 59.1 °F /  15.1 °C 29.83in /  1010hPa SW 0.8mph /  1.3km/h 5mph /  8km/h 56.4% 0.00in /  0mm 23 W/m2
19:29 75.4 °F /  24.1 °C 59.4 °F /  15.2 °C 29.83in /  1010hPa WSW 0.1mph /  0.2km/h 5mph /  8km/h 57.5% 0.00in /  0mm 21 W/m2
19:34 75.2 °F /  24 °C 59.8 °F /  15.4 °C 29.83in /  1010hPa Calm   5mph /  8km/h 58.8% 0.00in /  0mm 21 W/m2
19:39 75 °F /  23.9 °C 60.2 °F /  15.7 °C 29.83in /  1010hPa Calm   1mph /  1.6km/h 60% 0.00in /  0mm 19 W/m2
19:44 74.7 °F /  23.7 °C 60.2 °F /  15.7 °C 29.84in /  1010.4hPa Calm   1mph /  1.6km/h 60.5% 0.00in /  0mm 18 W/m2
19:49 74.4 °F /  23.6 °C 59.6 °F /  15.3 °C 29.84in /  1010.4hPa Calm   1mph /  1.6km/h 60% 0.00in /  0mm 16 W/m2
19:54 74.1 °F /  23.4 °C 60.2 °F /  15.7 °C 29.84in /  1010.4hPa SW 0.8mph /  1.3km/h 4mph /  6.4km/h 61.9% 0.00in /  0mm 14 W/m2
19:59 73.9 °F /  23.3 °C 60.5 °F /  15.8 °C 29.84in /  1010.4hPa SW 0.3mph /  0.5km/h 4mph /  6.4km/h 63% 0.00in /  0mm 11 W/m2
20:04 73.6 °F /  23.1 °C 60.2 °F /  15.7 °C 29.84in /  1010.4hPa Calm   4mph /  6.4km/h 63% 0.00in /  0mm 9 W/m2
20:09 73.2 °F /  22.9 °C 60.2 °F /  15.7 °C 29.84in /  1010.4hPa SSW 0.2mph /  0.3km/h 3mph /  4.8km/h 63.8% 0.00in /  0mm 7 W/m2
20:14 72.9 °F /  22.7 °C 60.2 °F /  15.7 °C 29.84in /  1010.4hPa Calm   3mph /  4.8km/h 64.5% 0.00in /  0mm 5 W/m2
20:19 72.6 °F /  22.6 °C 60.1 °F /  15.6 °C 29.84in /  1010.4hPa Calm   3mph /  4.8km/h 65% 0.00in /  0mm 0 W/m2
20:24 72.3 °F /  22.4 °C 60.1 °F /  15.6 °C 29.84in /  1010.4hPa Calm   3mph /  4.8km/h 65.6% 0.00in /  0mm 0 W/m2
20:29 72 °F /  22.2 °C 60 °F /  15.6 °C 29.84in /  1010.4hPa Calm   3mph /  4.8km/h 66% 0.00in /  0mm 0 W/m2
20:34 71.8 °F /  22.1 °C 59.9 °F /  15.5 °C 29.84in /  1010.4hPa Calm   3mph /  4.8km/h 66.2% 0.00in /  0mm 0 W/m2
20:39 71.6 °F /  22 °C 60 °F /  15.6 °C 29.84in /  1010.4hPa Calm   1mph /  1.6km/h 66.8% 0.00in /  0mm 0 W/m2
20:44 71.3 °F /  21.8 °C 59.7 °F /  15.4 °C 29.85in /  1010.7hPa SW 0.5mph /  0.8km/h 4mph /  6.4km/h 66.6% 0.00in /  0mm 0 W/m2
20:49 71.1 °F /  21.7 °C 59.6 °F /  15.3 °C 29.84in /  1010.4hPa SW 0.1mph /  0.2km/h 4mph /  6.4km/h 67% 0.00in /  0mm 0 W/m2
20:54 70.9 °F /  21.6 °C 59.4 °F /  15.2 °C 29.84in /  1010.4hPa Calm   4mph /  6.4km/h 67% 0.00in /  0mm 0 W/m2
20:59 70.7 °F /  21.5 °C 59.2 °F /  15.1 °C 29.84in /  1010.4hPa Calm   4mph /  6.4km/h 67% 0.00in /  0mm 0 W/m2
21:04 70.5 °F /  21.4 °C 59.1 °F /  15.1 °C 29.85in /  1010.7hPa Calm   4mph /  6.4km/h 67.2% 0.00in /  0mm 0 W/m2
21:09 70.3 °F /  21.3 °C 59.3 °F /  15.2 °C 29.85in /  1010.7hPa Calm     68% 0.00in /  0mm 0 W/m2
21:14 70.2 °F /  21.2 °C 59.5 °F /  15.3 °C 29.85in /  1010.7hPa Calm     68.8% 0.00in /  0mm 0 W/m2
21:19 70 °F /  21.1 °C 59.6 °F /  15.3 °C 29.86in /  1011.1hPa Calm     69.5% 0.00in /  0mm 0 W/m2
21:24 69.8 °F /  21 °C 59.6 °F /  15.3 °C 29.86in /  1011.1hPa Calm     70% 0.00in /  0mm 0 W/m2
21:29 69.6 °F /  20.9 °C 59.4 °F /  15.2 °C 29.86in /  1011.1hPa SW 0.1mph /  0.2km/h 2mph /  3.2km/h 70% 0.00in /  0mm 0 W/m2
21:34 69.4 °F /  20.8 °C 59.6 °F /  15.3 °C 29.86in /  1011.1hPa SW 0.1mph /  0.2km/h 2mph /  3.2km/h 71% 0.00in /  0mm 0 W/m2
21:39 69.2 °F /  20.7 °C 59.5 °F /  15.3 °C 29.87in /  1011.4hPa SW 0.2mph /  0.3km/h 2mph /  3.2km/h 71.2% 0.00in /  0mm 0 W/m2
21:44 69 °F /  20.6 °C 59.6 °F /  15.3 °C 29.87in /  1011.4hPa SW 0.1mph /  0.2km/h 2mph /  3.2km/h 72% 0.00in /  0mm 0 W/m2
21:49 68.9 °F /  20.5 °C 59.9 °F /  15.5 °C 29.87in /  1011.4hPa Calm   2mph /  3.2km/h 73% 0.00in /  0mm 0 W/m2
21:54 68.7 °F /  20.4 °C 59.9 °F /  15.5 °C 29.88in /  1011.7hPa Calm   2mph /  3.2km/h 73.6% 0.00in /  0mm 0 W/m2
21:59 68.5 °F /  20.3 °C 60 °F /  15.6 °C 29.88in /  1011.7hPa Calm   2mph /  3.2km/h 74.3% 0.00in /  0mm 0 W/m2
22:04 68.3 °F /  20.2 °C 60.1 °F /  15.6 °C 29.88in /  1011.7hPa Calm   2mph /  3.2km/h 75% 0.00in /  0mm 0 W/m2
22:09 68.2 °F /  20.1 °C 60.3 °F /  15.7 °C 29.88in /  1011.7hPa Calm     75.9% 0.00in /  0mm 0 W/m2
22:14 68 °F /  20 °C 60.2 °F /  15.7 °C 29.88in /  1011.7hPa Calm     76% 0.00in /  0mm 0 W/m2
22:19 67.9 °F /  19.9 °C 60.2 °F /  15.7 °C 29.88in /  1011.7hPa Calm     76.5% 0.00in /  0mm 0 W/m2
22:24 67.7 °F /  19.8 °C 60.2 °F /  15.7 °C 29.88in /  1011.7hPa Calm     77% 0.00in /  0mm 0 W/m2
22:29 67.5 °F /  19.7 °C 60.3 °F /  15.7 °C 29.89in /  1012.1hPa SW 0.1mph /  0.2km/h 2mph /  3.2km/h 77.8% 0.00in /  0mm 0 W/m2
22:34 67.3 °F /  19.6 °C 60.2 °F /  15.7 °C 29.88in /  1011.7hPa Calm   2mph /  3.2km/h 78% 0.00in /  0mm 0 W/m2
22:39 67.1 °F /  19.5 °C 60.3 °F /  15.7 °C 29.88in /  1011.7hPa SW 0.1mph /  0.2km/h 2mph /  3.2km/h 78.9% 0.00in /  0mm 0 W/m2
22:44 66.9 °F /  19.4 °C 60.2 °F /  15.7 °C 29.88in /  1011.7hPa SW 0.1mph /  0.2km/h 2mph /  3.2km/h 79% 0.00in /  0mm 0 W/m2
22:49 66.6 °F /  19.2 °C 60.2 °F /  15.7 °C 29.88in /  1011.7hPa Calm   2mph /  3.2km/h 80% 0.00in /  0mm 0 W/m2
22:54 66.4 °F /  19.1 °C 60 °F /  15.6 °C 29.88in /  1011.7hPa Calm   2mph /  3.2km/h 80% 0.00in /  0mm 0 W/m2
22:59 66.2 °F /  19 °C 59.8 °F /  15.4 °C 29.88in /  1011.7hPa Calm   2mph /  3.2km/h 80% 0.00in /  0mm 0 W/m2
23:04 66 °F /  18.9 °C 59.8 °F /  15.4 °C 29.88in /  1011.7hPa Calm   2mph /  3.2km/h 80.4% 0.00in /  0mm 0 W/m2
23:09 65.8 °F /  18.8 °C 59.8 °F /  15.4 °C 29.88in /  1011.7hPa Calm     81% 0.00in /  0mm 0 W/m2
23:14 65.6 °F /  18.7 °C 59.6 °F /  15.3 °C 29.88in /  1011.7hPa Calm     81% 0.00in /  0mm 0 W/m2
23:19 65.5 °F /  18.6 °C 59.5 °F /  15.3 °C 29.88in /  1011.7hPa Calm     81% 0.00in /  0mm 0 W/m2
23:24 65.3 °F /  18.5 °C 59.3 °F /  15.2 °C 29.88in /  1011.7hPa Calm     81% 0.00in /  0mm 0 W/m2
23:29 65.2 °F /  18.4 °C 59.2 °F /  15.1 °C 29.88in /  1011.7hPa Calm     81% 0.00in /  0mm 0 W/m2
23:34 65.1 °F /  18.4 °C 59.1 °F /  15.1 °C 29.88in /  1011.7hPa Calm     81% 0.00in /  0mm 0 W/m2
23:39 65 °F /  18.3 °C 59 °F /  15 °C 29.88in /  1011.7hPa Calm     81% 0.00in /  0mm 0 W/m2
23:44 64.9 °F /  18.3 °C 59 °F /  15 °C 29.88in /  1011.7hPa Calm     81% 0.00in /  0mm 0 W/m2
23:49 64.9 °F /  18.3 °C 58.9 °F /  14.9 °C 29.88in /  1011.7hPa Calm     81% 0.00in /  0mm 0 W/m2
23:54 64.8 °F /  18.2 °C 59.1 °F /  15.1 °C 29.88in /  1011.7hPa Calm     81.7% 0.00in /  0mm 0 W/m2
23:59 64.7 °F /  18.2 °C 58.9 °F /  14.9 °C 29.88in /  1011.7hPa Calm     81.4% 0.00in /  0mm 0 W/m2
Hartford County Weather
Compliments of Weather Underground - 4 mb